sensor_id;sensor_type;location;lat;lon;timestamp;pressure;altitude;pressure_sealevel;temperature;humidity
70437;BME280;57877;39.750;-104.894;2023-08-24T00:01:53;83882.89;;;27.87;18.99
70437;BME280;57877;39.750;-104.894;2023-08-24T00:04:18;83882.85;;;28.45;19.18
70437;BME280;57877;39.750;-104.894;2023-08-24T00:06:43;83881.36;;;28.56;18.78
70437;BME280;57877;39.750;-104.894;2023-08-24T00:09:08;83877.90;;;28.84;17.80
70437;BME280;57877;39.750;-104.894;2023-08-24T00:11:33;83872.07;;;28.14;18.39
70437;BME280;57877;39.750;-104.894;2023-08-24T00:13:58;83870.50;;;28.25;18.35
70437;BME280;57877;39.750;-104.894;2023-08-24T00:16:23;83870.55;;;28.10;18.32
70437;BME280;57877;39.750;-104.894;2023-08-24T00:18:48;83877.00;;;29.13;17.69
70437;BME280;57877;39.750;-104.894;2023-08-24T00:21:14;83879.48;;;28.86;17.96
70437;BME280;57877;39.750;-104.894;2023-08-24T00:23:38;83876.08;;;28.40;18.15
70437;BME280;57877;39.750;-104.894;2023-08-24T00:26:04;83874.42;;;27.64;18.88
70437;BME280;57877;39.750;-104.894;2023-08-24T00:28:29;83875.48;;;28.29;18.58
70437;BME280;57877;39.750;-104.894;2023-08-24T00:30:54;83863.92;;;28.40;18.70
70437;BME280;57877;39.750;-104.894;2023-08-24T00:33:19;83863.85;;;29.18;17.96
70437;BME280;57877;39.750;-104.894;2023-08-24T00:35:44;83863.99;;;27.88;18.94
70437;BME280;57877;39.750;-104.894;2023-08-24T00:38:09;83867.43;;;29.10;17.97
70437;BME280;57877;39.750;-104.894;2023-08-24T00:40:34;83863.68;;;29.85;17.81
70437;BME280;57877;39.750;-104.894;2023-08-24T00:42:59;83861.92;;;29.13;17.93
70437;BME280;57877;39.750;-104.894;2023-08-24T00:45:25;83861.26;;;28.95;18.06
70437;BME280;57877;39.750;-104.894;2023-08-24T00:47:50;83859.89;;;29.69;17.97
70437;BME280;57877;39.750;-104.894;2023-08-24T00:50:17;83861.23;;;28.63;18.37
70437;BME280;57877;39.750;-104.894;2023-08-24T00:52:43;83865.72;;;29.05;17.86
70437;BME280;57877;39.750;-104.894;2023-08-24T00:55:09;83867.47;;;30.25;17.26
70437;BME280;57877;39.750;-104.894;2023-08-24T00:57:35;83868.18;;;30.11;17.29
70437;BME280;57877;39.750;-104.894;2023-08-24T01:00:02;83871.72;;;28.76;18.09
70437;BME280;57877;39.750;-104.894;2023-08-24T01:02:26;83870.39;;;28.24;18.43
70437;BME280;57877;39.750;-104.894;2023-08-24T01:04:52;83873.93;;;28.83;18.13
70437;BME280;57877;39.750;-104.894;2023-08-24T01:07:19;83872.91;;;29.64;17.40
70437;BME280;57877;39.750;-104.894;2023-08-24T01:09:45;83874.56;;;28.57;17.75
70437;BME280;57877;39.750;-104.894;2023-08-24T01:12:17;83872.86;;;29.72;17.42
70437;BME280;57877;39.750;-104.894;2023-08-24T01:14:41;83873.62;;;29.53;17.61
70437;BME280;57877;39.750;-104.894;2023-08-24T01:17:05;83874.57;;;28.06;18.30
70437;BME280;57877;39.750;-104.894;2023-08-24T01:19:35;83874.88;;;28.81;17.58
70437;BME280;57877;39.750;-104.894;2023-08-24T01:21:55;83877.07;;;29.95;17.02
70437;BME280;57877;39.750;-104.894;2023-08-24T01:24:27;83873.12;;;30.81;16.36
70437;BME280;57877;39.750;-104.894;2023-08-24T01:26:42;83873.12;;;30.61;16.60
70437;BME280;57877;39.750;-104.894;2023-08-24T01:29:07;83878.32;;;29.57;17.19
70437;BME280;57877;39.750;-104.894;2023-08-24T01:31:32;83878.43;;;29.44;17.48
70437;BME280;57877;39.750;-104.894;2023-08-24T01:33:56;83885.11;;;29.86;17.13
70437;BME280;57877;39.750;-104.894;2023-08-24T01:36:21;83884.03;;;30.95;16.51
70437;BME280;57877;39.750;-104.894;2023-08-24T01:38:53;83889.50;;;30.52;16.74
70437;BME280;57877;39.750;-104.894;2023-08-24T01:41:17;83891.74;;;30.99;16.11
70437;BME280;57877;39.750;-104.894;2023-08-24T01:43:38;83895.79;;;31.26;15.99
70437;BME280;57877;39.750;-104.894;2023-08-24T01:46:04;83895.24;;;31.28;16.23
70437;BME280;57877;39.750;-104.894;2023-08-24T01:48:27;83897.98;;;31.51;16.09
70437;BME280;57877;39.750;-104.894;2023-08-24T01:50:55;83897.91;;;31.52;16.19
70437;BME280;57877;39.750;-104.894;2023-08-24T01:53:17;83897.84;;;31.10;16.51
70437;BME280;57877;39.750;-104.894;2023-08-24T01:55:44;83897.22;;;29.52;17.28
70437;BME280;57877;39.750;-104.894;2023-08-24T01:58:09;83898.84;;;29.61;17.26
70437;BME280;57877;39.750;-104.894;2023-08-24T02:00:34;83903.97;;;30.59;17.10
70437;BME280;57877;39.750;-104.894;2023-08-24T02:03:00;83917.89;;;30.64;16.85
70437;BME280;57877;39.750;-104.894;2023-08-24T02:05:26;83924.83;;;29.61;17.44
70437;BME280;57877;39.750;-104.894;2023-08-24T02:07:52;83931.14;;;29.96;17.61
70437;BME280;57877;39.750;-104.894;2023-08-24T02:10:18;83932.57;;;30.45;17.53
70437;BME280;57877;39.750;-104.894;2023-08-24T02:12:43;83926.97;;;29.76;18.20
70437;BME280;57877;39.750;-104.894;2023-08-24T02:15:10;83936.62;;;29.92;18.17
70437;BME280;57877;39.750;-104.894;2023-08-24T02:17:36;83940.80;;;29.59;18.49
70437;BME280;57877;39.750;-104.894;2023-08-24T02:20:02;83938.15;;;30.12;17.89
70437;BME280;57877;39.750;-104.894;2023-08-24T02:22:29;83934.83;;;29.40;18.22
70437;BME280;57877;39.750;-104.894;2023-08-24T02:24:54;83938.32;;;30.00;17.90
70437;BME280;57877;39.750;-104.894;2023-08-24T02:27:20;83941.82;;;29.98;17.70
70437;BME280;57877;39.750;-104.894;2023-08-24T02:29:46;83940.14;;;29.95;17.92
70437;BME280;57877;39.750;-104.894;2023-08-24T02:32:12;83940.21;;;30.22;18.10
70437;BME280;57877;39.750;-104.894;2023-08-24T02:34:37;83935.63;;;30.29;18.38
70437;BME280;57877;39.750;-104.894;2023-08-24T02:37:02;83933.04;;;30.11;18.21
70437;BME280;57877;39.750;-104.894;2023-08-24T02:39:27;83937.20;;;29.55;18.76
70437;BME280;57877;39.750;-104.894;2023-08-24T02:41:52;83937.39;;;29.55;18.55
70437;BME280;57877;39.750;-104.894;2023-08-24T02:44:18;83938.89;;;29.81;18.42
70437;BME280;57877;39.750;-104.894;2023-08-24T02:46:45;83940.79;;;29.45;18.62
70437;BME280;57877;39.750;-104.894;2023-08-24T02:49:08;83946.93;;;29.92;18.41
70437;BME280;57877;39.750;-104.894;2023-08-24T02:51:34;83949.60;;;30.03;18.27
70437;BME280;57877;39.750;-104.894;2023-08-24T02:54:00;83949.20;;;29.49;18.97
70437;BME280;57877;39.750;-104.894;2023-08-24T02:56:26;83950.84;;;29.87;18.91
70437;BME280;57877;39.750;-104.894;2023-08-24T02:58:52;83955.88;;;29.74;19.00
70437;BME280;57877;39.750;-104.894;2023-08-24T03:01:18;83962.72;;;29.75;18.32
70437;BME280;57877;39.750;-104.894;2023-08-24T03:03:44;83967.85;;;29.86;18.25
70437;BME280;57877;39.750;-104.894;2023-08-24T03:06:10;83967.56;;;29.59;18.74
70437;BME280;57877;39.750;-104.894;2023-08-24T03:08:36;83969.37;;;29.57;18.93
70437;BME280;57877;39.750;-104.894;2023-08-24T03:11:03;83967.48;;;29.90;18.70
70437;BME280;57877;39.750;-104.894;2023-08-24T03:13:29;83965.33;;;29.47;18.60
70437;BME280;57877;39.750;-104.894;2023-08-24T03:15:55;83966.97;;;29.71;19.54
70437;BME280;57877;39.750;-104.894;2023-08-24T03:18:20;83970.13;;;28.93;20.10
70437;BME280;57877;39.750;-104.894;2023-08-24T03:20:45;83968.62;;;29.25;20.09
70437;BME280;57877;39.750;-104.894;2023-08-24T03:23:10;83965.33;;;29.35;20.12
70437;BME280;57877;39.750;-104.894;2023-08-24T03:25:37;83959.69;;;28.67;20.20
70437;BME280;57877;39.750;-104.894;2023-08-24T03:28:00;83967.44;;;28.60;20.49
70437;BME280;57877;39.750;-104.894;2023-08-24T03:30:25;83962.09;;;28.40;20.90
70437;BME280;57877;39.750;-104.894;2023-08-24T03:32:50;83964.50;;;28.45;20.86
70437;BME280;57877;39.750;-104.894;2023-08-24T03:35:16;83967.58;;;28.60;21.03
70437;BME280;57877;39.750;-104.894;2023-08-24T03:37:41;83971.28;;;29.30;20.60
70437;BME280;57877;39.750;-104.894;2023-08-24T03:40:07;83968.69;;;27.97;21.75
70437;BME280;57877;39.750;-104.894;2023-08-24T03:42:31;83975.14;;;28.23;21.20
70437;BME280;57877;39.750;-104.894;2023-08-24T03:44:56;83973.00;;;28.43;21.24
70437;BME280;57877;39.750;-104.894;2023-08-24T03:47:21;83970.43;;;28.47;21.20
70437;BME280;57877;39.750;-104.894;2023-08-24T03:49:47;83971.42;;;28.64;21.10
70437;BME280;57877;39.750;-104.894;2023-08-24T03:52:13;83971.74;;;28.38;21.08
70437;BME280;57877;39.750;-104.894;2023-08-24T03:54:39;83966.87;;;28.74;21.11
70437;BME280;57877;39.750;-104.894;2023-08-24T03:57:05;83965.19;;;28.15;21.18
70437;BME280;57877;39.750;-104.894;2023-08-24T03:59:31;83962.39;;;27.65;21.39
70437;BME280;57877;39.750;-104.894;2023-08-24T04:01:57;83962.06;;;27.87;21.36
70437;BME280;57877;39.750;-104.894;2023-08-24T04:04:23;83965.46;;;28.44;21.23
70437;BME280;57877;39.750;-104.894;2023-08-24T04:06:49;83965.12;;;27.95;21.44
70437;BME280;57877;39.750;-104.894;2023-08-24T04:09:15;83964.49;;;27.68;21.46
70437;BME280;57877;39.750;-104.894;2023-08-24T04:11:41;83962.99;;;28.12;21.43
70437;BME280;57877;39.750;-104.894;2023-08-24T04:14:07;83962.13;;;28.04;21.73
70437;BME280;57877;39.750;-104.894;2023-08-24T04:16:33;83966.52;;;28.03;21.56
70437;BME280;57877;39.750;-104.894;2023-08-24T04:18:59;83970.07;;;28.01;21.78
70437;BME280;57877;39.750;-104.894;2023-08-24T04:21:25;83971.96;;;28.27;21.85
70437;BME280;57877;39.750;-104.894;2023-08-24T04:23:51;83970.37;;;28.07;21.81
70437;BME280;57877;39.750;-104.894;2023-08-24T04:26:17;83967.23;;;27.76;22.08
70437;BME280;57877;39.750;-104.894;2023-08-24T04:28:43;83967.29;;;27.89;22.03
70437;BME280;57877;39.750;-104.894;2023-08-24T04:31:09;83969.43;;;27.93;21.97
70437;BME280;57877;39.750;-104.894;2023-08-24T04:33:35;83971.42;;;27.89;21.60
70437;BME280;57877;39.750;-104.894;2023-08-24T04:36:02;83974.15;;;27.93;21.24
70437;BME280;57877;39.750;-104.894;2023-08-24T04:38:27;83977.30;;;28.14;21.73
70437;BME280;57877;39.750;-104.894;2023-08-24T04:40:54;83974.90;;;27.87;21.81
70437;BME280;57877;39.750;-104.894;2023-08-24T04:43:20;83976.48;;;27.65;22.11
70437;BME280;57877;39.750;-104.894;2023-08-24T04:45:47;83981.42;;;27.85;22.35
70437;BME280;57877;39.750;-104.894;2023-08-24T04:48:10;83980.66;;;27.80;22.47
70437;BME280;57877;39.750;-104.894;2023-08-24T04:50:36;83978.09;;;27.30;22.84
70437;BME280;57877;39.750;-104.894;2023-08-24T04:53:02;83972.36;;;27.33;22.77
70437;BME280;57877;39.750;-104.894;2023-08-24T04:55:28;83968.61;;;26.78;23.23
70437;BME280;57877;39.750;-104.894;2023-08-24T04:57:54;83966.21;;;27.26;22.87
70437;BME280;57877;39.750;-104.894;2023-08-24T05:00:20;83968.04;;;27.37;22.60
70437;BME280;57877;39.750;-104.894;2023-08-24T05:02:46;83967.39;;;27.38;22.45
70437;BME280;57877;39.750;-104.894;2023-08-24T05:05:12;83968.22;;;27.60;22.62
70437;BME280;57877;39.750;-104.894;2023-08-24T05:07:38;83967.51;;;28.06;22.14
70437;BME280;57877;39.750;-104.894;2023-08-24T05:10:05;83970.25;;;27.98;21.95
70437;BME280;57877;39.750;-104.894;2023-08-24T05:12:30;83971.87;;;27.89;22.15
70437;BME280;57877;39.750;-104.894;2023-08-24T05:14:56;83971.75;;;27.38;22.50
70437;BME280;57877;39.750;-104.894;2023-08-24T05:17:22;83973.90;;;27.89;22.31
70437;BME280;57877;39.750;-104.894;2023-08-24T05:19:52;83975.47;;;27.46;22.20
70437;BME280;57877;39.750;-104.894;2023-08-24T05:22:14;83975.98;;;27.25;22.73
70437;BME280;57877;39.750;-104.894;2023-08-24T05:24:40;83982.00;;;26.82;22.67
70437;BME280;57877;39.750;-104.894;2023-08-24T05:27:06;83979.91;;;26.17;23.59
70437;BME280;57877;39.750;-104.894;2023-08-24T05:29:32;83978.82;;;25.52;24.39
70437;BME280;57877;39.750;-104.894;2023-08-24T05:31:58;83980.07;;;26.17;23.97
70437;BME280;57877;39.750;-104.894;2023-08-24T05:34:23;83985.97;;;24.55;26.11
70437;BME280;57877;39.750;-104.894;2023-08-24T05:36:49;83992.11;;;25.24;25.61
70437;BME280;57877;39.750;-104.894;2023-08-24T05:39:15;83996.42;;;24.76;26.37
70437;BME280;57877;39.750;-104.894;2023-08-24T05:41:41;84000.34;;;24.93;26.61
70437;BME280;57877;39.750;-104.894;2023-08-24T05:44:07;83999.63;;;23.76;28.10
70437;BME280;57877;39.750;-104.894;2023-08-24T05:46:33;84001.09;;;24.78;27.59
70437;BME280;57877;39.750;-104.894;2023-08-24T05:48:59;84002.93;;;24.00;28.42
70437;BME280;57877;39.750;-104.894;2023-08-24T05:51:25;84001.00;;;24.34;28.36
70437;BME280;57877;39.750;-104.894;2023-08-24T05:53:51;84001.90;;;23.84;29.05
70437;BME280;57877;39.750;-104.894;2023-08-24T05:56:17;84000.68;;;24.37;28.79
70437;BME280;57877;39.750;-104.894;2023-08-24T05:58:42;83998.59;;;22.87;30.57
70437;BME280;57877;39.750;-104.894;2023-08-24T06:01:08;84002.50;;;22.52;31.34
70437;BME280;57877;39.750;-104.894;2023-08-24T06:03:34;84001.45;;;23.96;29.58
70437;BME280;57877;39.750;-104.894;2023-08-24T06:06:02;84001.28;;;22.58;31.88
70437;BME280;57877;39.750;-104.894;2023-08-24T06:08:26;84002.88;;;23.31;30.91
70437;BME280;57877;39.750;-104.894;2023-08-24T06:10:52;84003.42;;;23.54;30.76
70437;BME280;57877;39.750;-104.894;2023-08-24T06:13:18;84005.77;;;22.78;31.76
70437;BME280;57877;39.750;-104.894;2023-08-24T06:15:44;84010.39;;;23.68;30.18
70437;BME280;57877;39.750;-104.894;2023-08-24T06:18:10;84011.41;;;24.65;29.20
70437;BME280;57877;39.750;-104.894;2023-08-24T06:20:36;84010.00;;;24.54;29.19
70437;BME280;57877;39.750;-104.894;2023-08-24T06:23:02;84011.94;;;25.14;28.52
70437;BME280;57877;39.750;-104.894;2023-08-24T06:25:28;84012.69;;;24.05;29.50
70437;BME280;57877;39.750;-104.894;2023-08-24T06:27:54;84012.71;;;22.75;31.22
70437;BME280;57877;39.750;-104.894;2023-08-24T06:30:20;84009.40;;;22.31;32.42
70437;BME280;57877;39.750;-104.894;2023-08-24T06:32:46;84012.79;;;23.61;30.82
70437;BME280;57877;39.750;-104.894;2023-08-24T06:35:12;84013.94;;;23.70;30.74
70437;BME280;57877;39.750;-104.894;2023-08-24T06:37:38;84016.87;;;24.45;29.81
70437;BME280;57877;39.750;-104.894;2023-08-24T06:40:05;84014.84;;;22.46;31.59
70437;BME280;57877;39.750;-104.894;2023-08-24T06:42:30;84018.07;;;24.11;29.85
70437;BME280;57877;39.750;-104.894;2023-08-24T06:44:56;84016.77;;;23.17;30.86
70437;BME280;57877;39.750;-104.894;2023-08-24T06:47:22;84018.06;;;23.54;30.89
70437;BME280;57877;39.750;-104.894;2023-08-24T06:49:48;84016.23;;;24.27;29.43
70437;BME280;57877;39.750;-104.894;2023-08-24T06:52:14;84013.18;;;24.34;29.91
70437;BME280;57877;39.750;-104.894;2023-08-24T06:54:40;84016.06;;;23.23;31.02
70437;BME280;57877;39.750;-104.894;2023-08-24T06:57:06;84019.12;;;23.34;31.08
70437;BME280;57877;39.750;-104.894;2023-08-24T06:59:32;84019.81;;;24.09;30.16
70437;BME280;57877;39.750;-104.894;2023-08-24T07:01:58;84019.18;;;24.36;29.62
70437;BME280;57877;39.750;-104.894;2023-08-24T07:04:25;84018.04;;;23.65;29.85
70437;BME280;57877;39.750;-104.894;2023-08-24T07:06:50;84019.80;;;24.02;29.36
70437;BME280;57877;39.750;-104.894;2023-08-24T07:09:16;84019.74;;;25.16;28.14
70437;BME280;57877;39.750;-104.894;2023-08-24T07:11:42;84021.01;;;25.82;27.29
70437;BME280;57877;39.750;-104.894;2023-08-24T07:14:08;84022.53;;;25.61;27.07
70437;BME280;57877;39.750;-104.894;2023-08-24T07:16:34;84027.04;;;25.97;26.83
70437;BME280;57877;39.750;-104.894;2023-08-24T07:19:01;84026.51;;;25.10;27.58
70437;BME280;57877;39.750;-104.894;2023-08-24T07:21:26;84027.83;;;25.88;27.19
70437;BME280;57877;39.750;-104.894;2023-08-24T07:23:52;84028.75;;;25.34;27.33
70437;BME280;57877;39.750;-104.894;2023-08-24T07:26:18;84031.50;;;25.46;27.17
70437;BME280;57877;39.750;-104.894;2023-08-24T07:28:44;84028.12;;;23.52;29.26
70437;BME280;57877;39.750;-104.894;2023-08-24T07:31:10;84034.13;;;24.74;27.83
70437;BME280;57877;39.750;-104.894;2023-08-24T07:33:36;84034.42;;;24.96;27.91
70437;BME280;57877;39.750;-104.894;2023-08-24T07:36:02;84030.47;;;24.32;28.42
70437;BME280;57877;39.750;-104.894;2023-08-24T07:38:28;84031.89;;;24.31;28.37
70437;BME280;57877;39.750;-104.894;2023-08-24T07:40:54;84032.11;;;25.31;27.41
70437;BME280;57877;39.750;-104.894;2023-08-24T07:43:20;84027.88;;;23.51;28.88
70437;BME280;57877;39.750;-104.894;2023-08-24T07:45:46;84030.97;;;24.75;27.74
70437;BME280;57877;39.750;-104.894;2023-08-24T07:48:12;84031.24;;;25.01;27.32
70437;BME280;57877;39.750;-104.894;2023-08-24T07:50:38;84028.44;;;25.27;27.17
70437;BME280;57877;39.750;-104.894;2023-08-24T07:53:04;84029.91;;;25.61;26.24
70437;BME280;57877;39.750;-104.894;2023-08-24T07:55:30;84030.35;;;25.51;26.72
70437;BME280;57877;39.750;-104.894;2023-08-24T07:57:56;84031.62;;;24.02;27.83
70437;BME280;57877;39.750;-104.894;2023-08-24T08:00:22;84027.18;;;24.95;26.88
70437;BME280;57877;39.750;-104.894;2023-08-24T08:02:50;84028.94;;;25.43;25.80
70437;BME280;57877;39.750;-104.894;2023-08-24T08:05:14;84032.07;;;25.88;25.83
70437;BME280;57877;39.750;-104.894;2023-08-24T08:07:40;84035.22;;;25.32;26.12
70437;BME280;57877;39.750;-104.894;2023-08-24T08:10:06;84037.87;;;25.86;25.82
70437;BME280;57877;39.750;-104.894;2023-08-24T08:12:32;84036.59;;;24.68;27.06
70437;BME280;57877;39.750;-104.894;2023-08-24T08:14:58;84033.63;;;25.55;26.24
70437;BME280;57877;39.750;-104.894;2023-08-24T08:17:24;84031.28;;;25.55;26.46
70437;BME280;57877;39.750;-104.894;2023-08-24T08:19:54;84036.14;;;25.43;26.70
70437;BME280;57877;39.750;-104.894;2023-08-24T08:22:15;84032.55;;;25.18;27.39
70437;BME280;57877;39.750;-104.894;2023-08-24T08:24:40;84033.00;;;25.64;26.11
70437;BME280;57877;39.750;-104.894;2023-08-24T08:27:05;84030.32;;;25.77;26.27
70437;BME280;57877;39.750;-104.894;2023-08-24T08:29:32;84025.55;;;24.33;28.05
70437;BME280;57877;39.750;-104.894;2023-08-24T08:31:56;84025.25;;;24.42;27.65
70437;BME280;57877;39.750;-104.894;2023-08-24T08:34:21;84028.43;;;24.63;27.25
70437;BME280;57877;39.750;-104.894;2023-08-24T08:36:47;84030.01;;;25.02;26.76
70437;BME280;57877;39.750;-104.894;2023-08-24T08:39:12;84026.74;;;25.60;26.88
70437;BME280;57877;39.750;-104.894;2023-08-24T08:41:42;84026.66;;;25.69;26.39
70437;BME280;57877;39.750;-104.894;2023-08-24T08:44:05;84026.41;;;25.62;26.33
70437;BME280;57877;39.750;-104.894;2023-08-24T08:46:30;84025.78;;;25.82;26.07
70437;BME280;57877;39.750;-104.894;2023-08-24T08:48:56;84026.09;;;25.61;26.09
70437;BME280;57877;39.750;-104.894;2023-08-24T08:51:22;84025.63;;;25.34;27.43
70437;BME280;57877;39.750;-104.894;2023-08-24T08:53:48;84023.92;;;25.74;25.94
70437;BME280;57877;39.750;-104.894;2023-08-24T08:56:13;84026.30;;;25.56;27.33
70437;BME280;57877;39.750;-104.894;2023-08-24T08:58:40;84028.46;;;25.55;26.67
70437;BME280;57877;39.750;-104.894;2023-08-24T09:01:05;84030.48;;;25.51;26.63
70437;BME280;57877;39.750;-104.894;2023-08-24T09:03:32;84031.16;;;26.10;25.85
70437;BME280;57877;39.750;-104.894;2023-08-24T09:05:58;84028.71;;;26.25;25.10
70437;BME280;57877;39.750;-104.894;2023-08-24T09:08:24;84028.91;;;25.80;25.75
70437;BME280;57877;39.750;-104.894;2023-08-24T09:10:49;84028.34;;;26.04;25.81
70437;BME280;57877;39.750;-104.894;2023-08-24T09:13:14;84026.17;;;26.33;25.31
70437;BME280;57877;39.750;-104.894;2023-08-24T09:15:39;84028.98;;;26.12;25.64
70437;BME280;57877;39.750;-104.894;2023-08-24T09:18:05;84027.90;;;25.97;25.58
70437;BME280;57877;39.750;-104.894;2023-08-24T09:20:30;84029.34;;;26.10;25.66
70437;BME280;57877;39.750;-104.894;2023-08-24T09:22:54;84033.67;;;25.69;25.84
70437;BME280;57877;39.750;-104.894;2023-08-24T09:25:20;84028.45;;;26.02;25.43
70437;BME280;57877;39.750;-104.894;2023-08-24T09:27:45;84029.53;;;26.03;26.37
70437;BME280;57877;39.750;-104.894;2023-08-24T09:30:10;84031.39;;;26.03;26.41
70437;BME280;57877;39.750;-104.894;2023-08-24T09:32:36;84031.30;;;26.11;26.36
70437;BME280;57877;39.750;-104.894;2023-08-24T09:35:03;84029.87;;;25.83;26.44
70437;BME280;57877;39.750;-104.894;2023-08-24T09:37:25;84030.83;;;25.58;26.74
70437;BME280;57877;39.750;-104.894;2023-08-24T09:39:50;84030.27;;;25.56;26.84
70437;BME280;57877;39.750;-104.894;2023-08-24T09:42:15;84030.47;;;25.51;26.81
70437;BME280;57877;39.750;-104.894;2023-08-24T09:44:43;84029.21;;;25.80;26.34
70437;BME280;57877;39.750;-104.894;2023-08-24T09:47:10;84029.58;;;25.59;26.87
70437;BME280;57877;39.750;-104.894;2023-08-24T09:49:31;84030.07;;;25.93;26.36
70437;BME280;57877;39.750;-104.894;2023-08-24T09:51:57;84032.62;;;25.60;27.08
70437;BME280;57877;39.750;-104.894;2023-08-24T09:54:22;84036.26;;;25.64;26.66
70437;BME280;57877;39.750;-104.894;2023-08-24T09:56:48;84033.72;;;25.67;26.44
70437;BME280;57877;39.750;-104.894;2023-08-24T09:59:13;84029.23;;;25.54;26.61
70437;BME280;57877;39.750;-104.894;2023-08-24T10:01:37;84020.14;;;25.29;26.69
70437;BME280;57877;39.750;-104.894;2023-08-24T10:04:04;84015.27;;;25.57;26.42
70437;BME280;57877;39.750;-104.894;2023-08-24T10:06:28;84013.05;;;25.72;26.32
70437;BME280;57877;39.750;-104.894;2023-08-24T10:08:55;84015.42;;;24.71;28.34
70437;BME280;57877;39.750;-104.894;2023-08-24T10:11:19;84019.02;;;24.40;28.34
70437;BME280;57877;39.750;-104.894;2023-08-24T10:13:46;84018.17;;;25.17;27.89
70437;BME280;57877;39.750;-104.894;2023-08-24T10:16:08;84020.41;;;25.30;28.09
70437;BME280;57877;39.750;-104.894;2023-08-24T10:18:31;84024.04;;;25.22;27.47
70437;BME280;57877;39.750;-104.894;2023-08-24T10:20:56;84027.89;;;25.38;27.56
70437;BME280;57877;39.750;-104.894;2023-08-24T10:23:21;84028.97;;;24.98;27.20
70437;BME280;57877;39.750;-104.894;2023-08-24T10:25:47;84025.55;;;24.62;28.50
70437;BME280;57877;39.750;-104.894;2023-08-24T10:28:11;84023.66;;;25.25;27.73
70437;BME280;57877;39.750;-104.894;2023-08-24T10:30:37;84020.68;;;24.46;28.19
70437;BME280;57877;39.750;-104.894;2023-08-24T10:33:01;84022.22;;;25.14;27.29
70437;BME280;57877;39.750;-104.894;2023-08-24T10:35:27;84023.40;;;24.88;27.50
70437;BME280;57877;39.750;-104.894;2023-08-24T10:37:53;84022.77;;;25.22;27.22
70437;BME280;57877;39.750;-104.894;2023-08-24T10:42:46;84027.56;;;24.82;27.18
70437;BME280;57877;39.750;-104.894;2023-08-24T10:45:08;84032.04;;;25.14;27.24
70437;BME280;57877;39.750;-104.894;2023-08-24T10:49:59;84039.52;;;24.70;27.74
70437;BME280;57877;39.750;-104.894;2023-08-24T10:52:24;84039.93;;;24.91;27.55
70437;BME280;57877;39.750;-104.894;2023-08-24T10:54:49;84040.68;;;25.04;27.86
70437;BME280;57877;39.750;-104.894;2023-08-24T10:57:19;84038.91;;;24.82;28.21
70437;BME280;57877;39.750;-104.894;2023-08-24T10:59:38;84043.34;;;24.56;28.09
70437;BME280;57877;39.750;-104.894;2023-08-24T11:02:04;84044.89;;;24.68;28.35
70437;BME280;57877;39.750;-104.894;2023-08-24T11:04:29;84040.91;;;24.35;28.95
70437;BME280;57877;39.750;-104.894;2023-08-24T11:06:55;84039.11;;;24.50;28.94
70437;BME280;57877;39.750;-104.894;2023-08-24T11:09:19;84037.70;;;24.36;28.66
70437;BME280;57877;39.750;-104.894;2023-08-24T11:14:14;84032.79;;;24.29;28.66
70437;BME280;57877;39.750;-104.894;2023-08-24T11:16:40;84032.73;;;24.21;28.60
70437;BME280;57877;39.750;-104.894;2023-08-24T11:18:59;84034.16;;;23.71;29.63
70437;BME280;57877;39.750;-104.894;2023-08-24T11:21:25;84035.07;;;23.58;29.78
70437;BME280;57877;39.750;-104.894;2023-08-24T11:23:49;84035.84;;;23.96;28.68
70437;BME280;57877;39.750;-104.894;2023-08-24T11:26:14;84032.61;;;23.74;28.81
70437;BME280;57877;39.750;-104.894;2023-08-24T11:28:39;84034.72;;;23.94;28.71
70437;BME280;57877;39.750;-104.894;2023-08-24T11:31:04;84036.59;;;24.03;28.22
70437;BME280;57877;39.750;-104.894;2023-08-24T11:33:31;84039.36;;;23.98;27.96
70437;BME280;57877;39.750;-104.894;2023-08-24T11:35:55;84040.20;;;23.55;29.27
70437;BME280;57877;39.750;-104.894;2023-08-24T11:38:20;84042.03;;;23.71;28.86
70437;BME280;57877;39.750;-104.894;2023-08-24T11:40:45;84047.47;;;23.82;28.63
70437;BME280;57877;39.750;-104.894;2023-08-24T11:43:10;84052.40;;;23.30;29.05
70437;BME280;57877;39.750;-104.894;2023-08-24T11:45:36;84052.29;;;23.68;28.78
70437;BME280;57877;39.750;-104.894;2023-08-24T11:48:00;84053.04;;;23.62;29.00
70437;BME280;57877;39.750;-104.894;2023-08-24T11:50:25;84053.31;;;23.65;28.95
70437;BME280;57877;39.750;-104.894;2023-08-24T11:52:53;84053.59;;;23.51;29.16
70437;BME280;57877;39.750;-104.894;2023-08-24T11:55:17;84056.80;;;23.55;29.57
70437;BME280;57877;39.750;-104.894;2023-08-24T11:57:43;84057.10;;;23.25;29.56
70437;BME280;57877;39.750;-104.894;2023-08-24T12:00:10;84058.12;;;23.52;29.39
70437;BME280;57877;39.750;-104.894;2023-08-24T12:02:35;84057.51;;;23.63;29.43
70437;BME280;57877;39.750;-104.894;2023-08-24T12:05:06;84060.51;;;23.67;29.43
70437;BME280;57877;39.750;-104.894;2023-08-24T12:07:28;84059.14;;;22.80;29.93
70437;BME280;57877;39.750;-104.894;2023-08-24T12:09:53;84058.54;;;23.08;29.99
70437;BME280;57877;39.750;-104.894;2023-08-24T12:12:19;84061.47;;;23.16;29.96
70437;BME280;57877;39.750;-104.894;2023-08-24T12:14:46;84060.38;;;23.23;29.82
70437;BME280;57877;39.750;-104.894;2023-08-24T12:17:12;84065.21;;;23.37;29.99
70437;BME280;57877;39.750;-104.894;2023-08-24T12:19:41;84069.30;;;23.13;29.97
70437;BME280;57877;39.750;-104.894;2023-08-24T12:22:02;84071.37;;;22.98;30.09
70437;BME280;57877;39.750;-104.894;2023-08-24T12:24:28;84074.54;;;23.19;30.12
70437;BME280;57877;39.750;-104.894;2023-08-24T12:26:57;84078.24;;;23.05;30.35
70437;BME280;57877;39.750;-104.894;2023-08-24T12:29:20;84081.02;;;22.59;30.66